sensor_id;sensor_type;location;lat;lon;timestamp;temperature;humidity
20035;DHT22;10178;48.034;9.800;2024-01-30T00:01:52;3.80;99.90
20035;DHT22;10178;48.034;9.800;2024-01-30T00:04:18;3.00;99.90
20035;DHT22;10178;48.034;9.800;2024-01-30T00:06:44;1.80;99.90
20035;DHT22;10178;48.034;9.800;2024-01-30T00:09:10;1.90;99.90
20035;DHT22;10178;48.034;9.800;2024-01-30T00:11:39;2.50;99.90
20035;DHT22;10178;48.034;9.800;2024-01-30T00:14:05;2.90;99.90
20035;DHT22;10178;48.034;9.800;2024-01-30T00:16:30;3.30;99.90
20035;DHT22;10178;48.034;9.800;2024-01-30T00:18:56;3.40;99.90
20035;DHT22;10178;48.034;9.800;2024-01-30T00:21:22;3.60;99.90
20035;DHT22;10178;48.034;9.800;2024-01-30T00:23:48;3.60;99.90
20035;DHT22;10178;48.034;9.800;2024-01-30T00:26:14;3.70;99.90
20035;DHT22;10178;48.034;9.800;2024-01-30T00:28:40;3.70;99.90
20035;DHT22;10178;48.034;9.800;2024-01-30T00:31:06;3.70;99.90
20035;DHT22;10178;48.034;9.800;2024-01-30T00:33:32;3.70;99.90
20035;DHT22;10178;48.034;9.800;2024-01-30T00:35:57;3.60;99.90
20035;DHT22;10178;48.034;9.800;2024-01-30T00:38:23;3.60;99.90
20035;DHT22;10178;48.034;9.800;2024-01-30T00:40:49;3.20;99.90
20035;DHT22;10178;48.034;9.800;2024-01-30T00:43:15;1.90;99.90
20035;DHT22;10178;48.034;9.800;2024-01-30T00:45:41;1.00;99.90
20035;DHT22;10178;48.034;9.800;2024-01-30T00:48:07;0.60;99.90
20035;DHT22;10178;48.034;9.800;2024-01-30T00:50:32;0.40;99.90
20035;DHT22;10178;48.034;9.800;2024-01-30T00:52:58;0.30;99.90
20035;DHT22;10178;48.034;9.800;2024-01-30T00:55:23;0.20;99.90
20035;DHT22;10178;48.034;9.800;2024-01-30T00:57:49;0.40;99.90
20035;DHT22;10178;48.034;9.800;2024-01-30T01:00:15;0.30;99.90
20035;DHT22;10178;48.034;9.800;2024-01-30T01:02:44;0.10;99.90
20035;DHT22;10178;48.034;9.800;2024-01-30T01:05:10;0.00;99.90
20035;DHT22;10178;48.034;9.800;2024-01-30T01:07:35;0.00;99.90
20035;DHT22;10178;48.034;9.800;2024-01-30T01:10:01;-0.10;99.90
20035;DHT22;10178;48.034;9.800;2024-01-30T01:12:28;-0.10;99.90
20035;DHT22;10178;48.034;9.800;2024-01-30T01:14:53;-0.10;99.90
20035;DHT22;10178;48.034;9.800;2024-01-30T01:17:19;-0.10;99.90
20035;DHT22;10178;48.034;9.800;2024-01-30T01:19:44;-0.20;99.90
20035;DHT22;10178;48.034;9.800;2024-01-30T01:22:11;-0.30;99.90
20035;DHT22;10178;48.034;9.800;2024-01-30T01:24:36;-0.30;99.90
20035;DHT22;10178;48.034;9.800;2024-01-30T01:27:02;-0.30;99.90
20035;DHT22;10178;48.034;9.800;2024-01-30T01:29:28;-0.30;99.90
20035;DHT22;10178;48.034;9.800;2024-01-30T01:31:58;-0.20;99.90
20035;DHT22;10178;48.034;9.800;2024-01-30T01:34:24;-0.30;99.90
20035;DHT22;10178;48.034;9.800;2024-01-30T01:36:50;-0.30;99.90
20035;DHT22;10178;48.034;9.800;2024-01-30T01:39:16;-0.30;99.90
20035;DHT22;10178;48.034;9.800;2024-01-30T01:41:42;-0.30;99.90
20035;DHT22;10178;48.034;9.800;2024-01-30T01:44:08;-0.30;99.90
20035;DHT22;10178;48.034;9.800;2024-01-30T01:46:34;-0.30;99.90
20035;DHT22;10178;48.034;9.800;2024-01-30T01:49:02;-0.10;99.90
20035;DHT22;10178;48.034;9.800;2024-01-30T01:51:29;-0.10;99.90
20035;DHT22;10178;48.034;9.800;2024-01-30T01:53:56;-0.10;99.90
20035;DHT22;10178;48.034;9.800;2024-01-30T01:56:26;-0.20;99.90
20035;DHT22;10178;48.034;9.800;2024-01-30T01:58:55;-0.10;99.90
20035;DHT22;10178;48.034;9.800;2024-01-30T02:01:21;-0.10;99.90
20035;DHT22;10178;48.034;9.800;2024-01-30T02:03:47;-0.20;99.90
20035;DHT22;10178;48.034;9.800;2024-01-30T02:06:16;-0.20;99.90
20035;DHT22;10178;48.034;9.800;2024-01-30T02:08:42;-0.20;99.90
20035;DHT22;10178;48.034;9.800;2024-01-30T02:11:08;-0.10;99.90
20035;DHT22;10178;48.034;9.800;2024-01-30T02:13:35;-0.10;99.90
20035;DHT22;10178;48.034;9.800;2024-01-30T02:16:01;-0.10;99.90
20035;DHT22;10178;48.034;9.800;2024-01-30T02:18:27;-0.20;99.90
20035;DHT22;10178;48.034;9.800;2024-01-30T02:20:55;-0.20;99.90
20035;DHT22;10178;48.034;9.800;2024-01-30T02:23:24;-0.20;99.90
20035;DHT22;10178;48.034;9.800;2024-01-30T02:25:50;-0.20;99.90
20035;DHT22;10178;48.034;9.800;2024-01-30T02:28:19;-0.10;99.90
20035;DHT22;10178;48.034;9.800;2024-01-30T02:30:45;0.10;99.90
20035;DHT22;10178;48.034;9.800;2024-01-30T02:33:12;0.70;99.90
20035;DHT22;10178;48.034;9.800;2024-01-30T02:35:37;1.10;99.90
20035;DHT22;10178;48.034;9.800;2024-01-30T02:38:03;1.40;99.90
20035;DHT22;10178;48.034;9.800;2024-01-30T02:40:29;1.20;99.90
20035;DHT22;10178;48.034;9.800;2024-01-30T02:42:56;1.50;99.90
20035;DHT22;10178;48.034;9.800;2024-01-30T02:45:22;1.00;99.90
20035;DHT22;10178;48.034;9.800;2024-01-30T02:47:47;0.70;99.90
20035;DHT22;10178;48.034;9.800;2024-01-30T02:50:13;1.10;99.90
20035;DHT22;10178;48.034;9.800;2024-01-30T02:52:40;1.00;99.90
20035;DHT22;10178;48.034;9.800;2024-01-30T02:55:06;0.90;99.90
20035;DHT22;10178;48.034;9.800;2024-01-30T02:57:32;0.90;99.90
20035;DHT22;10178;48.034;9.800;2024-01-30T02:59:58;0.60;99.90
20035;DHT22;10178;48.034;9.800;2024-01-30T03:02:23;0.40;99.90
20035;DHT22;10178;48.034;9.800;2024-01-30T03:04:49;0.20;99.90
20035;DHT22;10178;48.034;9.800;2024-01-30T03:07:14;0.10;99.90
20035;DHT22;10178;48.034;9.800;2024-01-30T03:09:41;0.10;99.90
20035;DHT22;10178;48.034;9.800;2024-01-30T03:12:09;0.10;99.90
20035;DHT22;10178;48.034;9.800;2024-01-30T03:14:34;0.20;99.90
20035;DHT22;10178;48.034;9.800;2024-01-30T03:17:00;0.40;99.90
20035;DHT22;10178;48.034;9.800;2024-01-30T03:19:25;0.20;99.90
20035;DHT22;10178;48.034;9.800;2024-01-30T03:21:52;0.20;99.90
20035;DHT22;10178;48.034;9.800;2024-01-30T03:24:18;0.20;99.90
20035;DHT22;10178;48.034;9.800;2024-01-30T03:26:44;0.20;99.90
20035;DHT22;10178;48.034;9.800;2024-01-30T03:29:09;0.10;99.90
20035;DHT22;10178;48.034;9.800;2024-01-30T03:31:35;0.00;99.90
20035;DHT22;10178;48.034;9.800;2024-01-30T03:34:01;0.00;99.90
20035;DHT22;10178;48.034;9.800;2024-01-30T03:36:27;0.00;99.90
20035;DHT22;10178;48.034;9.800;2024-01-30T03:38:53;0.10;99.90
20035;DHT22;10178;48.034;9.800;2024-01-30T03:41:19;-0.10;99.90
20035;DHT22;10178;48.034;9.800;2024-01-30T03:43:45;-0.20;99.90
20035;DHT22;10178;48.034;9.800;2024-01-30T03:46:12;-0.20;99.90
20035;DHT22;10178;48.034;9.800;2024-01-30T03:48:38;-0.20;99.90
20035;DHT22;10178;48.034;9.800;2024-01-30T03:51:04;-0.30;99.90
20035;DHT22;10178;48.034;9.800;2024-01-30T03:53:30;-0.30;99.90
20035;DHT22;10178;48.034;9.800;2024-01-30T03:55:55;-0.40;99.90
20035;DHT22;10178;48.034;9.800;2024-01-30T03:58:21;-0.40;99.90
20035;DHT22;10178;48.034;9.800;2024-01-30T04:00:47;-0.40;99.90
20035;DHT22;10178;48.034;9.800;2024-01-30T04:03:13;-0.50;99.90
20035;DHT22;10178;48.034;9.800;2024-01-30T04:05:40;-0.50;99.90
20035;DHT22;10178;48.034;9.800;2024-01-30T04:08:05;-0.50;99.90
20035;DHT22;10178;48.034;9.800;2024-01-30T04:10:31;-0.50;99.90
20035;DHT22;10178;48.034;9.800;2024-01-30T04:12:57;-0.50;99.90
20035;DHT22;10178;48.034;9.800;2024-01-30T04:15:22;-0.50;99.90
20035;DHT22;10178;48.034;9.800;2024-01-30T04:17:48;-0.50;99.90
20035;DHT22;10178;48.034;9.800;2024-01-30T04:20:14;-0.50;99.90
20035;DHT22;10178;48.034;9.800;2024-01-30T04:22:44;-0.40;99.90
20035;DHT22;10178;48.034;9.800;2024-01-30T04:25:11;-0.40;99.90
20035;DHT22;10178;48.034;9.800;2024-01-30T04:27:37;-0.40;99.90
20035;DHT22;10178;48.034;9.800;2024-01-30T04:30:03;-0.40;99.90
20035;DHT22;10178;48.034;9.800;2024-01-30T04:32:29;-0.40;99.90
20035;DHT22;10178;48.034;9.800;2024-01-30T04:34:54;-0.40;99.90
20035;DHT22;10178;48.034;9.800;2024-01-30T04:37:20;-0.40;99.90
20035;DHT22;10178;48.034;9.800;2024-01-30T04:39:46;-0.50;99.90
20035;DHT22;10178;48.034;9.800;2024-01-30T04:42:11;-0.40;99.90
20035;DHT22;10178;48.034;9.800;2024-01-30T04:44:37;-0.40;99.90
20035;DHT22;10178;48.034;9.800;2024-01-30T04:47:03;-0.50;99.90
20035;DHT22;10178;48.034;9.800;2024-01-30T04:49:30;-0.50;99.90
20035;DHT22;10178;48.034;9.800;2024-01-30T04:51:56;-0.50;99.90
20035;DHT22;10178;48.034;9.800;2024-01-30T04:54:22;-0.50;99.90
20035;DHT22;10178;48.034;9.800;2024-01-30T04:56:47;-0.50;99.90
20035;DHT22;10178;48.034;9.800;2024-01-30T04:59:13;-0.50;99.90
20035;DHT22;10178;48.034;9.800;2024-01-30T05:01:38;-0.50;99.90
20035;DHT22;10178;48.034;9.800;2024-01-30T05:04:07;-0.50;99.90
20035;DHT22;10178;48.034;9.800;2024-01-30T05:06:33;-0.40;99.90
20035;DHT22;10178;48.034;9.800;2024-01-30T05:08:58;-0.40;99.90
20035;DHT22;10178;48.034;9.800;2024-01-30T05:11:24;-0.30;99.90
20035;DHT22;10178;48.034;9.800;2024-01-30T05:13:50;-0.30;99.90
20035;DHT22;10178;48.034;9.800;2024-01-30T05:16:15;-0.20;99.90
20035;DHT22;10178;48.034;9.800;2024-01-30T05:18:41;-0.20;99.90
20035;DHT22;10178;48.034;9.800;2024-01-30T05:21:06;0.00;99.90
20035;DHT22;10178;48.034;9.800;2024-01-30T05:23:32;0.40;99.90
20035;DHT22;10178;48.034;9.800;2024-01-30T05:25:58;1.00;99.90
20035;DHT22;10178;48.034;9.800;2024-01-30T05:28:26;1.30;99.90
20035;DHT22;10178;48.034;9.800;2024-01-30T05:30:52;1.40;99.90
20035;DHT22;10178;48.034;9.800;2024-01-30T05:33:17;1.60;99.90
20035;DHT22;10178;48.034;9.800;2024-01-30T05:35:43;1.40;99.90
20035;DHT22;10178;48.034;9.800;2024-01-30T05:38:09;1.60;99.90
20035;DHT22;10178;48.034;9.800;2024-01-30T05:40:34;1.70;99.90
20035;DHT22;10178;48.034;9.800;2024-01-30T05:43:00;1.60;99.90
20035;DHT22;10178;48.034;9.800;2024-01-30T05:45:27;1.40;99.90
20035;DHT22;10178;48.034;9.800;2024-01-30T05:47:53;1.50;99.90
20035;DHT22;10178;48.034;9.800;2024-01-30T05:50:19;0.90;99.90
20035;DHT22;10178;48.034;9.800;2024-01-30T05:52:45;0.50;99.90
20035;DHT22;10178;48.034;9.800;2024-01-30T05:55:14;0.30;99.90
20035;DHT22;10178;48.034;9.800;2024-01-30T05:57:41;0.30;99.90
20035;DHT22;10178;48.034;9.800;2024-01-30T06:00:07;0.70;99.90
20035;DHT22;10178;48.034;9.800;2024-01-30T06:02:34;0.90;99.90
20035;DHT22;10178;48.034;9.800;2024-01-30T06:04:59;0.80;99.90
20035;DHT22;10178;48.034;9.800;2024-01-30T06:07:25;0.70;99.90
20035;DHT22;10178;48.034;9.800;2024-01-30T06:09:50;0.60;99.90
20035;DHT22;10178;48.034;9.800;2024-01-30T06:12:16;0.50;99.90
20035;DHT22;10178;48.034;9.800;2024-01-30T06:14:42;0.50;99.90
20035;DHT22;10178;48.034;9.800;2024-01-30T06:17:08;0.60;99.90
20035;DHT22;10178;48.034;9.800;2024-01-30T06:19:35;0.30;99.90
20035;DHT22;10178;48.034;9.800;2024-01-30T06:22:00;0.10;99.90
20035;DHT22;10178;48.034;9.800;2024-01-30T06:24:26;-0.10;99.90
20035;DHT22;10178;48.034;9.800;2024-01-30T06:26:53;0.00;99.90
20035;DHT22;10178;48.034;9.800;2024-01-30T06:29:18;-0.20;99.90
20035;DHT22;10178;48.034;9.800;2024-01-30T06:31:44;-0.20;99.90
20035;DHT22;10178;48.034;9.800;2024-01-30T06:34:10;-0.40;99.90
20035;DHT22;10178;48.034;9.800;2024-01-30T06:36:37;-0.10;99.90
20035;DHT22;10178;48.034;9.800;2024-01-30T06:39:03;-0.30;99.90
20035;DHT22;10178;48.034;9.800;2024-01-30T06:41:29;-0.50;99.90
20035;DHT22;10178;48.034;9.800;2024-01-30T06:43:55;-0.40;99.90
20035;DHT22;10178;48.034;9.800;2024-01-30T06:46:21;-0.30;99.90
20035;DHT22;10178;48.034;9.800;2024-01-30T06:48:47;0.00;99.90
20035;DHT22;10178;48.034;9.800;2024-01-30T06:51:12;0.10;99.90
20035;DHT22;10178;48.034;9.800;2024-01-30T06:53:38;-0.10;99.90
20035;DHT22;10178;48.034;9.800;2024-01-30T06:56:04;0.20;99.90
20035;DHT22;10178;48.034;9.800;2024-01-30T06:58:30;0.20;99.90
20035;DHT22;10178;48.034;9.800;2024-01-30T07:00:56;0.50;99.90
20035;DHT22;10178;48.034;9.800;2024-01-30T07:03:21;0.40;99.90
20035;DHT22;10178;48.034;9.800;2024-01-30T07:05:47;0.10;99.90
20035;DHT22;10178;48.034;9.800;2024-01-30T07:08:15;-0.30;99.90
20035;DHT22;10178;48.034;9.800;2024-01-30T07:10:43;-0.30;99.90
20035;DHT22;10178;48.034;9.800;2024-01-30T07:13:09;-0.50;99.90
20035;DHT22;10178;48.034;9.800;2024-01-30T07:15:35;-0.50;99.90
20035;DHT22;10178;48.034;9.800;2024-01-30T07:18:02;-0.50;99.90
20035;DHT22;10178;48.034;9.800;2024-01-30T07:20:28;-0.30;99.90
20035;DHT22;10178;48.034;9.800;2024-01-30T07:22:55;-0.30;99.90
20035;DHT22;10178;48.034;9.800;2024-01-30T07:25:21;-0.30;99.90
20035;DHT22;10178;48.034;9.800;2024-01-30T07:27:47;-0.30;99.90
20035;DHT22;10178;48.034;9.800;2024-01-30T07:30:12;-0.40;99.90
20035;DHT22;10178;48.034;9.800;2024-01-30T07:32:38;-0.50;99.90
20035;DHT22;10178;48.034;9.800;2024-01-30T07:35:04;-0.60;99.90
20035;DHT22;10178;48.034;9.800;2024-01-30T07:37:30;-0.60;99.90
20035;DHT22;10178;48.034;9.800;2024-01-30T07:39:55;-0.50;99.90
20035;DHT22;10178;48.034;9.800;2024-01-30T07:42:21;-0.50;99.90
20035;DHT22;10178;48.034;9.800;2024-01-30T07:44:46;-0.40;99.90
20035;DHT22;10178;48.034;9.800;2024-01-30T07:47:12;-0.40;99.90
20035;DHT22;10178;48.034;9.800;2024-01-30T07:49:37;-0.30;99.90
20035;DHT22;10178;48.034;9.800;2024-01-30T07:52:03;-0.30;99.90
20035;DHT22;10178;48.034;9.800;2024-01-30T07:54:32;-0.30;99.90
20035;DHT22;10178;48.034;9.800;2024-01-30T07:57:04;-0.20;99.90
20035;DHT22;10178;48.034;9.800;2024-01-30T07:59:30;-0.20;99.90
20035;DHT22;10178;48.034;9.800;2024-01-30T08:01:55;-0.10;99.90
20035;DHT22;10178;48.034;9.800;2024-01-30T08:04:21;0.10;99.90
20035;DHT22;10178;48.034;9.800;2024-01-30T08:06:47;0.40;99.90
20035;DHT22;10178;48.034;9.800;2024-01-30T08:09:12;0.40;99.90
20035;DHT22;10178;48.034;9.800;2024-01-30T08:11:38;0.30;99.90
20035;DHT22;10178;48.034;9.800;2024-01-30T08:14:04;0.30;99.90
20035;DHT22;10178;48.034;9.800;2024-01-30T08:16:29;0.40;99.90
20035;DHT22;10178;48.034;9.800;2024-01-30T08:18:55;0.20;99.90
20035;DHT22;10178;48.034;9.800;2024-01-30T08:21:23;0.10;99.90
20035;DHT22;10178;48.034;9.800;2024-01-30T08:23:48;0.00;99.90
20035;DHT22;10178;48.034;9.800;2024-01-30T08:26:14;0.10;99.90
20035;DHT22;10178;48.034;9.800;2024-01-30T08:28:39;0.10;99.90
20035;DHT22;10178;48.034;9.800;2024-01-30T08:31:05;0.10;99.90
20035;DHT22;10178;48.034;9.800;2024-01-30T08:33:31;0.10;99.90
20035;DHT22;10178;48.034;9.800;2024-01-30T08:35:57;0.20;99.90
20035;DHT22;10178;48.034;9.800;2024-01-30T08:38:22;0.20;99.90
20035;DHT22;10178;48.034;9.800;2024-01-30T08:40:48;0.20;99.90
20035;DHT22;10178;48.034;9.800;2024-01-30T08:43:14;0.30;99.90
20035;DHT22;10178;48.034;9.800;2024-01-30T08:45:40;0.30;99.90
20035;DHT22;10178;48.034;9.800;2024-01-30T08:48:06;0.40;99.90
20035;DHT22;10178;48.034;9.800;2024-01-30T08:50:33;0.50;99.90
20035;DHT22;10178;48.034;9.800;2024-01-30T08:52:58;0.70;99.90
20035;DHT22;10178;48.034;9.800;2024-01-30T08:55:24;0.80;99.90
20035;DHT22;10178;48.034;9.800;2024-01-30T08:57:50;0.90;99.90
20035;DHT22;10178;48.034;9.800;2024-01-30T09:00:15;1.00;99.90
20035;DHT22;10178;48.034;9.800;2024-01-30T09:02:41;1.10;99.90
20035;DHT22;10178;48.034;9.800;2024-01-30T09:05:07;1.20;99.90
20035;DHT22;10178;48.034;9.800;2024-01-30T09:07:33;1.30;99.90
20035;DHT22;10178;48.034;9.800;2024-01-30T09:09:58;1.40;99.90
20035;DHT22;10178;48.034;9.800;2024-01-30T09:12:24;1.50;99.90
20035;DHT22;10178;48.034;9.800;2024-01-30T09:14:49;1.40;99.90
20035;DHT22;10178;48.034;9.800;2024-01-30T09:17:15;1.40;99.90
20035;DHT22;10178;48.034;9.800;2024-01-30T09:19:41;1.40;99.90
20035;DHT22;10178;48.034;9.800;2024-01-30T09:22:06;1.50;99.90
20035;DHT22;10178;48.034;9.800;2024-01-30T09:24:32;1.60;99.90
20035;DHT22;10178;48.034;9.800;2024-01-30T09:26:58;1.50;99.90
20035;DHT22;10178;48.034;9.800;2024-01-30T09:29:23;1.50;99.90
20035;DHT22;10178;48.034;9.800;2024-01-30T09:31:49;1.70;99.90
20035;DHT22;10178;48.034;9.800;2024-01-30T09:34:14;1.80;99.90
20035;DHT22;10178;48.034;9.800;2024-01-30T09:36:40;1.90;99.90
20035;DHT22;10178;48.034;9.800;2024-01-30T09:39:06;2.10;99.90
20035;DHT22;10178;48.034;9.800;2024-01-30T09:41:33;2.20;99.90
20035;DHT22;10178;48.034;9.800;2024-01-30T09:44:01;2.40;99.90
20035;DHT22;10178;48.034;9.800;2024-01-30T09:46:28;2.50;99.90
20035;DHT22;10178;48.034;9.800;2024-01-30T09:48:57;2.70;99.90
20035;DHT22;10178;48.034;9.800;2024-01-30T09:51:24;2.90;99.90
20035;DHT22;10178;48.034;9.800;2024-01-30T09:53:50;2.90;99.90
20035;DHT22;10178;48.034;9.800;2024-01-30T09:56:16;3.00;99.90
20035;DHT22;10178;48.034;9.800;2024-01-30T09:58:42;3.30;99.90
20035;DHT22;10178;48.034;9.800;2024-01-30T10:01:08;3.30;99.90
20035;DHT22;10178;48.034;9.800;2024-01-30T10:03:33;3.40;99.90
20035;DHT22;10178;48.034;9.800;2024-01-30T10:06:00;3.50;99.90
20035;DHT22;10178;48.034;9.800;2024-01-30T10:08:27;3.70;99.90
20035;DHT22;10178;48.034;9.800;2024-01-30T10:10:52;3.70;99.90
20035;DHT22;10178;48.034;9.800;2024-01-30T10:13:18;3.70;99.90
20035;DHT22;10178;48.034;9.800;2024-01-30T10:15:44;3.70;99.90
20035;DHT22;10178;48.034;9.800;2024-01-30T10:18:10;3.80;99.90
20035;DHT22;10178;48.034;9.800;2024-01-30T10:20:37;4.00;99.90
20035;DHT22;10178;48.034;9.800;2024-01-30T10:23:03;4.10;99.90
20035;DHT22;10178;48.034;9.800;2024-01-30T10:25:30;4.20;99.90
20035;DHT22;10178;48.034;9.800;2024-01-30T10:27:56;4.40;99.90
20035;DHT22;10178;48.034;9.800;2024-01-30T10:30:24;4.70;99.90
20035;DHT22;10178;48.034;9.800;2024-01-30T10:32:50;4.90;99.90
20035;DHT22;10178;48.034;9.800;2024-01-30T10:35:16;5.30;99.90
20035;DHT22;10178;48.034;9.800;2024-01-30T10:37:47;5.40;99.90
20035;DHT22;10178;48.034;9.800;2024-01-30T10:40:14;5.60;99.90
20035;DHT22;10178;48.034;9.800;2024-01-30T10:42:43;6.00;99.90
20035;DHT22;10178;48.034;9.800;2024-01-30T10:45:11;6.20;99.90
20035;DHT22;10178;48.034;9.800;2024-01-30T10:47:40;6.60;99.90
20035;DHT22;10178;48.034;9.800;2024-01-30T10:50:07;6.80;99.90
20035;DHT22;10178;48.034;9.800;2024-01-30T10:52:33;6.90;99.90
20035;DHT22;10178;48.034;9.800;2024-01-30T10:54:59;7.10;99.90
20035;DHT22;10178;48.034;9.800;2024-01-30T10:57:26;7.10;99.90
20035;DHT22;10178;48.034;9.800;2024-01-30T10:59:57;7.20;99.90
20035;DHT22;10178;48.034;9.800;2024-01-30T11:02:24;7.20;99.90
20035;DHT22;10178;48.034;9.800;2024-01-30T11:04:58;7.20;99.90
20035;DHT22;10178;48.034;9.800;2024-01-30T11:07:25;7.20;99.90
20035;DHT22;10178;48.034;9.800;2024-01-30T11:10:00;7.20;99.90
20035;DHT22;10178;48.034;9.800;2024-01-30T11:12:27;7.20;99.90
20035;DHT22;10178;48.034;9.800;2024-01-30T11:18:22;7.30;99.90
20035;DHT22;10178;48.034;9.800;2024-01-30T11:20:32;7.20;99.90
20035;DHT22;10178;48.034;9.800;2024-01-30T11:22:58;7.10;99.90
20035;DHT22;10178;48.034;9.800;2024-01-30T11:25:25;7.00;99.90
20035;DHT22;10178;48.034;9.800;2024-01-30T11:27:53;7.10;99.90
20035;DHT22;10178;48.034;9.800;2024-01-30T11:30:26;7.10;99.90
20035;DHT22;10178;48.034;9.800;2024-01-30T11:35:32;7.20;99.90
20035;DHT22;10178;48.034;9.800;2024-01-30T11:38:00;7.20;99.90
20035;DHT22;10178;48.034;9.800;2024-01-30T11:40:30;7.20;99.90
20035;DHT22;10178;48.034;9.800;2024-01-30T11:42:59;7.20;99.90
20035;DHT22;10178;48.034;9.800;2024-01-30T11:45:25;7.30;99.90
20035;DHT22;10178;48.034;9.800;2024-01-30T11:47:51;7.40;99.90
20035;DHT22;10178;48.034;9.800;2024-01-30T11:50:17;7.40;99.90
20035;DHT22;10178;48.034;9.800;2024-01-30T11:52:43;7.40;99.90
20035;DHT22;10178;48.034;9.800;2024-01-30T11:55:09;7.50;99.90
20035;DHT22;10178;48.034;9.800;2024-01-30T11:57:35;7.60;99.90
20035;DHT22;10178;48.034;9.800;2024-01-30T12:00:03;7.60;99.90
20035;DHT22;10178;48.034;9.800;2024-01-30T12:02:36;7.60;99.90
20035;DHT22;10178;48.034;9.800;2024-01-30T12:05:08;7.60;99.90
20035;DHT22;10178;48.034;9.800;2024-01-30T12:07:35;7.70;99.90
20035;DHT22;10178;48.034;9.800;2024-01-30T12:10:00;7.70;99.90
20035;DHT22;10178;48.034;9.800;2024-01-30T12:12:27;7.70;99.90
20035;DHT22;10178;48.034;9.800;2024-01-30T12:14:53;7.70;99.90
20035;DHT22;10178;48.034;9.800;2024-01-30T12:17:30;7.80;99.90
20035;DHT22;10178;48.034;9.800;2024-01-30T12:20:18;7.80;99.90
20035;DHT22;10178;48.034;9.800;2024-01-30T12:22:49;7.80;99.90
20035;DHT22;10178;48.034;9.800;2024-01-30T12:25:16;7.80;99.90
20035;DHT22;10178;48.034;9.800;2024-01-30T12:27:43;7.90;99.90
20035;DHT22;10178;48.034;9.800;2024-01-30T12:30:11;7.90;99.90
20035;DHT22;10178;48.034;9.800;2024-01-30T12:32:40;7.90;99.90
20035;DHT22;10178;48.034;9.800;2024-01-30T12:35:23;8.00;99.90
20035;DHT22;10178;48.034;9.800;2024-01-30T12:37:49;8.00;99.90
20035;DHT22;10178;48.034;9.800;2024-01-30T12:40:16;8.00;99.90
20035;DHT22;10178;48.034;9.800;2024-01-30T12:42:43;8.00;99.90
20035;DHT22;10178;48.034;9.800;2024-01-30T12:45:11;8.00;99.90
20035;DHT22;10178;48.034;9.800;2024-01-30T12:47:37;8.00;99.90
20035;DHT22;10178;48.034;9.800;2024-01-30T12:50:03;7.90;99.90
20035;DHT22;10178;48.034;9.800;2024-01-30T12:52:29;7.70;99.90
20035;DHT22;10178;48.034;9.800;2024-01-30T12:54:54;7.40;99.90
20035;DHT22;10178;48.034;9.800;2024-01-30T12:57:20;7.50;99.90
20035;DHT22;10178;48.034;9.800;2024-01-30T12:59:46;7.50;99.90
20035;DHT22;10178;48.034;9.800;2024-01-30T13:02:13;7.60;99.90
20035;DHT22;10178;48.034;9.800;2024-01-30T13:04:39;7.80;99.90
20035;DHT22;10178;48.034;9.800;2024-01-30T13:07:05;8.00;99.90
20035;DHT22;10178;48.034;9.800;2024-01-30T13:09:30;8.00;99.90
20035;DHT22;10178;48.034;9.800;2024-01-30T13:11:57;8.00;99.90
20035;DHT22;10178;48.034;9.800;2024-01-30T13:14:23;7.90;99.90
20035;DHT22;10178;48.034;9.800;2024-01-30T13:16:49;7.90;99.90
20035;DHT22;10178;48.034;9.800;2024-01-30T13:19:14;7.90;99.90
20035;DHT22;10178;48.034;9.800;2024-01-30T13:21:40;7.90;99.90
20035;DHT22;10178;48.034;9.800;2024-01-30T13:24:06;7.70;99.90
20035;DHT22;10178;48.034;9.800;2024-01-30T13:26:32;7.70;99.90
20035;DHT22;10178;48.034;9.800;2024-01-30T13:28:58;7.70;99.90
20035;DHT22;10178;48.034;9.800;2024-01-30T13:31:24;7.70;99.90
20035;DHT22;10178;48.034;9.800;2024-01-30T13:33:50;7.70;99.90
20035;DHT22;10178;48.034;9.800;2024-01-30T13:36:16;7.70;99.90
20035;DHT22;10178;48.034;9.800;2024-01-30T13:38:41;7.70;99.90
20035;DHT22;10178;48.034;9.800;2024-01-30T13:41:07;7.90;99.90
20035;DHT22;10178;48.034;9.800;2024-01-30T13:43:33;8.00;99.90
20035;DHT22;10178;48.034;9.800;2024-01-30T13:45:59;8.20;99.90
20035;DHT22;10178;48.034;9.800;2024-01-30T13:48:24;8.20;99.90
20035;DHT22;10178;48.034;9.800;2024-01-30T13:50:50;8.30;99.90
20035;DHT22;10178;48.034;9.800;2024-01-30T13:53:16;8.40;99.90
20035;DHT22;10178;48.034;9.800;2024-01-30T13:55:41;8.30;99.90
20035;DHT22;10178;48.034;9.800;2024-01-30T13:58:07;8.20;99.90
20035;DHT22;10178;48.034;9.800;2024-01-30T14:00:33;8.20;99.90
20035;DHT22;10178;48.034;9.800;2024-01-30T14:02:59;8.10;99.90
20035;DHT22;10178;48.034;9.800;2024-01-30T14:05:25;8.10;99.90
20035;DHT22;10178;48.034;9.800;2024-01-30T14:07:52;8.00;99.90
20035;DHT22;10178;48.034;9.800;2024-01-30T14:10:17;8.00;99.90
20035;DHT22;10178;48.034;9.800;2024-01-30T14:12:44;7.80;99.90
20035;DHT22;10178;48.034;9.800;2024-01-30T14:15:10;7.90;99.90
20035;DHT22;10178;48.034;9.800;2024-01-30T14:17:36;8.00;99.90
20035;DHT22;10178;48.034;9.800;2024-01-30T14:20:05;8.00;99.90
20035;DHT22;10178;48.034;9.800;2024-01-30T14:22:33;8.00;99.90
20035;DHT22;10178;48.034;9.800;2024-01-30T14:24:59;8.00;99.90
20035;DHT22;10178;48.034;9.800;2024-01-30T14:27:25;8.00;99.90
20035;DHT22;10178;48.034;9.800;2024-01-30T14:29:51;7.90;99.90
20035;DHT22;10178;48.034;9.800;2024-01-30T14:32:16;8.00;99.90
20035;DHT22;10178;48.034;9.800;2024-01-30T14:34:42;8.00;99.90
20035;DHT22;10178;48.034;9.800;2024-01-30T14:37:08;8.10;99.90
20035;DHT22;10178;48.034;9.800;2024-01-30T14:39:34;8.20;99.90
20035;DHT22;10178;48.034;9.800;2024-01-30T14:42:03;8.20;99.90
20035;DHT22;10178;48.034;9.800;2024-01-30T14:44:29;8.20;99.90
20035;DHT22;10178;48.034;9.800;2024-01-30T14:46:54;8.00;99.90
20035;DHT22;10178;48.034;9.800;2024-01-30T14:49:20;8.00;99.90
20035;DHT22;10178;48.034;9.800;2024-01-30T14:51:46;8.00;99.90
20035;DHT22;10178;48.034;9.800;2024-01-30T14:54:12;8.00;99.90
20035;DHT22;10178;48.034;9.800;2024-01-30T14:56:37;8.00;99.90
20035;DHT22;10178;48.034;9.800;2024-01-30T14:59:03;8.10;99.90
20035;DHT22;10178;48.034;9.800;2024-01-30T15:01:29;8.10;99.90
20035;DHT22;10178;48.034;9.800;2024-01-30T15:03:54;8.10;99.90
20035;DHT22;10178;48.034;9.800;2024-01-30T15:06:21;8.10;99.90
20035;DHT22;10178;48.034;9.800;2024-01-30T15:08:49;8.20;99.90
20035;DHT22;10178;48.034;9.800;2024-01-30T15:11:15;8.20;99.90
20035;DHT22;10178;48.034;9.800;2024-01-30T15:13:41;8.10;99.90
20035;DHT22;10178;48.034;9.800;2024-01-30T15:16:07;8.00;99.90
20035;DHT22;10178;48.034;9.800;2024-01-30T15:18:33;7.80;99.90
20035;DHT22;10178;48.034;9.800;2024-01-30T15:20:58;7.70;99.90
20035;DHT22;10178;48.034;9.800;2024-01-30T15:23:24;7.50;99.90
20035;DHT22;10178;48.034;9.800;2024-01-30T15:25:49;7.30;99.90
20035;DHT22;10178;48.034;9.800;2024-01-30T15:28:15;7.20;99.90
20035;DHT22;10178;48.034;9.800;2024-01-30T15:30:42;7.10;99.90
20035;DHT22;10178;48.034;9.800;2024-01-30T15:33:12;7.00;99.90
20035;DHT22;10178;48.034;9.800;2024-01-30T15:35:37;6.90;99.90
20035;DHT22;10178;48.034;9.800;2024-01-30T15:38:04;7.00;99.90
20035;DHT22;10178;48.034;9.800;2024-01-30T15:40:34;6.80;99.90
20035;DHT22;10178;48.034;9.800;2024-01-30T15:42:59;6.80;99.90